Elissa — WDD9058 — position and weather

sailwx.info

Track history (hours):
 
Tides and Currents Weather Stations Pressure Air Temp Water Temp Dewpoint Dewpoint Depression Visibility Wind Speed Wind Dir Waves Ship Positions

Elissa

Owner: Ingram Barge Company, Nashville, TN. More information available from US FCC via Universal Licensing System and Coast Guard Vessel Documentation Center.

Last reported at 2015-Jan-30 09:26 UTC. Time now 2015-Jan-31 03:59 UTC.
Position N 29°56' W 090°21'.

Length 26 m; draft 3.6 m.

Type: Towing. MMSI: 367306290.

Date/timePositionNaut miles runAvg speedWind from/ knotsBaromVisibWave heightAir tempDewpointWater temp
2015-Jan-30 09:26N 29°56' W 090°21'10 2.3
2015-Jan-30 05:18N 29°57' W 090°10'3 3.4
2015-Jan-30 04:33N 29°55' W 090°08'4 4.1
2015-Jan-30 03:33N 29°56' W 090°04'2 2.1
2015-Jan-30 02:33N 29°55' W 090°06'4 3.8
2015-Jan-30 01:32N 29°57' W 090°09'19 1.4
2015-Jan-29 11:28N 30°03' W 090°30'0 0.3
2015-Jan-29 10:32N 30°03' W 090°31'3 3.5
2015-Jan-29 09:33N 30°03' W 090°35'7 6.6
2015-Jan-29 08:33N 30°02' W 090°42'7 6.3
2015-Jan-29 07:26N 29°60' W 090°50'4 4.7
2015-Jan-29 06:33N 30°04' W 090°52'2 2.2
2015-Jan-29 05:29N 30°05' W 090°54'7 5.4
2015-Jan-29 04:13N 30°07' W 091°02'5 2.7
2015-Jan-29 02:31N 30°12' W 091°01'18 0.5
2015-Jan-27 13:12N 30°01' W 090°45'7 2.5
2015-Jan-27 10:33N 30°02' W 090°37'4 4.3
2015-Jan-27 09:33N 30°03' W 090°32'1 0.8
2015-Jan-27 08:31N 30°03' W 090°31'2 2.5
2015-Jan-27 07:31N 30°02' W 090°29'4 3.7
2015-Jan-27 06:30N 29°60' W 090°26'14 1.2
2015-Jan-26 19:22N 29°57' W 090°10'56 1.8
2015-Jan-25 12:33N 30°20' W 091°09'36 1.6
2015-Jan-24 13:33N 30°03' W 090°31'  
2015-Jan-21 05:15N 30°13' W 091°06'24 1.5
2015-Jan-20 13:21N 30°03' W 090°40'  
Track history (hours):
 
Tides and Currents Weather Stations Pressure Air Temp Water Temp Dewpoint Dewpoint Depression Visibility Wind Speed Wind Dir Waves Ship Positions

Elissa

Owner: Ingram Barge Company, Nashville, TN. More information available from US FCC via Universal Licensing System and Coast Guard Vessel Documentation Center.

Last reported at 2015-Jan-30 09:26 UTC. Time now 2015-Jan-31 03:59 UTC.
Position N 29°56' W 090°21'.

Length 26 m; draft 3.6 m.

Type: Towing. MMSI: 367306290.

Date/timePositionNaut miles runAvg speedWind from/ knotsBaromVisibWave heightAir tempDewpointWater temp
2015-Jan-30 09:26N 29°56' W 090°21'10 2.3
2015-Jan-30 05:18N 29°57' W 090°10'3 3.4
2015-Jan-30 04:33N 29°55' W 090°08'4 4.1
2015-Jan-30 03:33N 29°56' W 090°04'2 2.1
2015-Jan-30 02:33N 29°55' W 090°06'4 3.8
2015-Jan-30 01:32N 29°57' W 090°09'19 1.4
2015-Jan-29 11:28N 30°03' W 090°30'0 0.3
2015-Jan-29 10:32N 30°03' W 090°31'3 3.5
2015-Jan-29 09:33N 30°03' W 090°35'7 6.6
2015-Jan-29 08:33N 30°02' W 090°42'7 6.3
2015-Jan-29 07:26N 29°60' W 090°50'4 4.7
2015-Jan-29 06:33N 30°04' W 090°52'2 2.2
2015-Jan-29 05:29N 30°05' W 090°54'7 5.4
2015-Jan-29 04:13N 30°07' W 091°02'5 2.7
2015-Jan-29 02:31N 30°12' W 091°01'18 0.5
2015-Jan-27 13:12N 30°01' W 090°45'7 2.5
2015-Jan-27 10:33N 30°02' W 090°37'4 4.3
2015-Jan-27 09:33N 30°03' W 090°32'1 0.8
2015-Jan-27 08:31N 30°03' W 090°31'2 2.5
2015-Jan-27 07:31N 30°02' W 090°29'4 3.7
2015-Jan-27 06:30N 29°60' W 090°26'14 1.2
2015-Jan-26 19:22N 29°57' W 090°10'56 1.8
2015-Jan-25 12:33N 30°20' W 091°09'36 1.6
2015-Jan-24 13:33N 30°03' W 090°31'  
2015-Jan-21 05:15N 30°13' W 091°06'24 1.5
2015-Jan-20 13:21N 30°03' W 090°40'  

Dump ship's entire track history